Αρχική σελίδα
METAR-TAF:

METAR-TAF

Αεροδρόμια :

Shingle Point, Γιουκόν, Καναδάς

γεωγραφικό πλάτος: 68-57N, γεωγραφικό μήκος: 137-13W, υψόμετρο: 56 μ

Παρών καιρός

Η αναφορά έγινε 27 λεπτά πριν, στις 06:10 UTC
Άνεμος 7 kt από Β/BΔ
Θερμοκρασία -14°C
Υγρασία 85%
Πίεση 1021 hPa
Λίγα νέφη σε ύψος 500 πόδια
Διάσπαρτα νέφη σε ύψος 1100 πόδια
Νεφοσκεπής σε ύψος 7000 πόδια

METAR: CYUA 220610Z AUTO 33007KT ////SM FEW005 SCT011 OVC070 M14/M16 A3015

Χρόνος: 23:37 (06:37 UTC)


TAF: λείπει

Μετεωρολογικές αναφορές και προγνώσεις για περισσότερα από 4000 αεροδρόμια (δελτία METAR και TAF).

Οι διαθέσιμοι σταθμοί απεικονίζονται στο χάρτη με κίτρινες και κόκκινες κουκκίδες.

Μετακινήστε το ποντίκι πάνω από τις κουκκίδες για να δείτε το όνομα του σταθμού.

Στη συνέχεια, κάντε κλικ για να δείτε τις μετεωρολογικές αναφορές και τις προγνώσεις καιρού.

Για να αλλάξετε το χάρτη: κάντε κλικ στα πράσινα κουμπιά με τον μαύρο σταυρό για να ζουμάρετε, στο πράσινο κουμπί με την παύλα για να αφαιρέσετε το ζουμ ή στα πράσινα βέλη για να αντιπαραβάλλετε χάρτες.


METAR-TAF: